createdAt,value
2022-12-13T00:01:50.184Z,100047.69
2022-12-13T00:06:54.411Z,100046.59
2022-12-13T00:11:58.607Z,100043.16
2022-12-13T00:17:01.491Z,100044.03
2022-12-13T00:22:04.245Z,100038.78
2022-12-13T00:27:08.375Z,100031.22
2022-12-13T00:32:11.248Z,100035.97
2022-12-13T00:37:14.044Z,100030.59
2022-12-13T00:42:18.147Z,100032.44
2022-12-13T00:47:22.267Z,100018.44
2022-12-13T00:52:25.097Z,100033.41
2022-12-13T00:57:29.402Z,100019.88
2022-12-13T01:02:32.211Z,100020.00
2022-12-13T01:07:35.015Z,100017.47
2022-12-13T01:12:39.249Z,100012.00
2022-12-13T01:17:42.028Z,100016.38
2022-12-13T01:22:44.909Z,100021.50
2022-12-13T01:27:48.989Z,100006.63
2022-12-13T01:32:51.774Z,100003.34
2022-12-13T01:37:55.653Z,100011.25
2022-12-13T01:43:03.224Z,100009.56
2022-12-13T01:48:18.668Z,100003.84
2022-12-13T01:53:22.792Z,99992.88
2022-12-13T01:58:26.944Z,99996.28
2022-12-13T02:03:29.756Z,99988.59
2022-12-13T02:08:36.067Z,99995.91
2022-12-13T02:13:40.851Z,99993.97
2022-12-13T02:18:55.418Z,99991.91
2022-12-13T02:24:20.744Z,99998.47
2022-12-13T02:29:52.400Z,99991.88
2022-12-13T02:34:58.897Z,99987.03
2022-12-13T02:40:04.346Z,99997.97
2022-12-13T02:45:08.862Z,99994.81
2022-12-13T02:50:13.728Z,99986.41
2022-12-13T02:55:17.134Z,99993.72
2022-12-13T03:00:22.024Z,99993.06
2022-12-13T03:05:46.266Z,99990.00
2022-12-13T03:10:53.297Z,99989.63
2022-12-13T03:15:57.684Z,99990.97
2022-12-13T03:21:03.323Z,99996.53
2022-12-13T03:26:08.188Z,99991.69
2022-12-13T03:31:11.325Z,99991.16
2022-12-13T03:36:15.601Z,99981.75
2022-12-13T03:41:19.469Z,99983.84
2022-12-13T03:46:22.271Z,99979.78
2022-12-13T03:51:26.478Z,99978.44
2022-12-13T03:56:29.346Z,99975.16
2022-12-13T04:01:32.273Z,99972.81
2022-12-13T04:06:36.453Z,99972.31
2022-12-13T04:11:56.870Z,99976.19
2022-12-13T04:16:59.635Z,99974.59
2022-12-13T04:22:03.834Z,99967.16
2022-12-13T04:27:06.661Z,99976.25
2022-12-13T04:32:26.929Z,99969.22
2022-12-13T04:37:31.679Z,99971.22
2022-12-13T04:42:34.453Z,99976.78
2022-12-13T04:47:37.177Z,99976.06
2022-12-13T04:52:41.336Z,99980.78
2022-12-13T04:57:44.126Z,99980.03
2022-12-13T05:02:46.936Z,99977.72
2022-12-13T05:07:51.187Z,99971.72
2022-12-13T05:12:54.020Z,99960.66
2022-12-13T05:17:56.809Z,99953.69
2022-12-13T05:23:00.999Z,99955.63
2022-12-13T05:28:09.069Z,99959.59
2022-12-13T05:33:26.902Z,99974.03
2022-12-13T05:38:31.169Z,99982.28
2022-12-13T05:43:42.110Z,99987.75
2022-12-13T05:48:46.406Z,99985.19
2022-12-13T05:53:53.418Z,99986.13
2022-12-13T05:58:56.575Z,99975.66
2022-12-13T06:03:59.419Z,99985.63
2022-12-13T06:09:03.798Z,99981.38
2022-12-13T06:14:06.694Z,99976.09
2022-12-13T06:19:25.937Z,99970.75
2022-12-13T06:24:30.050Z,99979.84
2022-12-13T06:29:32.795Z,99986.06
2022-12-13T06:34:36.548Z,99996.00
2022-12-13T06:39:41.014Z,100011.31
2022-12-13T06:44:44.142Z,100020.41
2022-12-13T06:49:47.160Z,100019.63
2022-12-13T06:54:54.235Z,100020.47
2022-12-13T07:00:03.460Z,100025.94
2022-12-13T07:05:07.141Z,100019.84
2022-12-13T07:10:12.535Z,100024.47
2022-12-13T07:15:25.224Z,100023.81
2022-12-13T07:20:28.022Z,100018.47
2022-12-13T07:25:32.377Z,100023.06
2022-12-13T07:30:41.115Z,100022.22
2022-12-13T07:35:44.610Z,100021.38
2022-12-13T07:40:48.999Z,100020.63
2022-12-13T07:45:51.919Z,100030.47
2022-12-13T07:50:54.957Z,100037.63
2022-12-13T07:55:59.252Z,100035.91
2022-12-13T08:01:03.104Z,100046.59
2022-12-13T08:06:07.978Z,100062.41
2022-12-13T08:11:12.777Z,100075.59
2022-12-13T08:16:28.073Z,100068.06
2022-12-13T08:27:01.906Z,100062.84
2022-12-13T08:32:05.105Z,100054.03
2022-12-13T08:37:07.885Z,100055.75
2022-12-13T08:42:15.989Z,100043.44
2022-12-13T08:47:22.570Z,100040.28
2022-12-13T08:52:27.755Z,100030.53
2022-12-13T08:57:31.885Z,100031.88
2022-12-13T09:02:37.968Z,100025.19
2022-12-13T09:07:43.002Z,100017.78
2022-12-13T09:12:47.555Z,100028.56
2022-12-13T09:17:52.360Z,100023.38
2022-12-13T09:23:01.989Z,100014.34
2022-12-13T09:28:08.297Z,100007.66
2022-12-13T09:33:28.716Z,100007.44
2022-12-13T09:38:35.774Z,100012.56
2022-12-13T09:43:42.621Z,100004.81
2022-12-13T09:48:48.386Z,99995.44
2022-12-13T09:53:52.512Z,99995.63
2022-12-13T09:58:57.184Z,100004.00
2022-12-13T10:04:00.644Z,100001.97
2022-12-13T10:09:03.408Z,99995.41
2022-12-13T10:14:10.141Z,99989.09
2022-12-13T10:19:28.868Z,99995.41
2022-12-13T10:24:49.169Z,99991.41
2022-12-13T10:30:00.488Z,99991.91
2022-12-13T10:35:11.197Z,99982.91
2022-12-13T10:40:32.058Z,99983.38
2022-12-13T10:45:37.395Z,99981.66
2022-12-13T10:50:40.520Z,99984.94
2022-12-13T10:55:43.734Z,99985.81
2022-12-13T11:00:49.319Z,99986.91
2022-12-13T11:05:52.183Z,99986.06
2022-12-13T11:10:59.400Z,99978.63
2022-12-13T11:16:03.771Z,99982.28
2022-12-13T11:21:07.786Z,99970.09
2022-12-13T11:26:12.507Z,99973.75
2022-12-13T11:31:17.539Z,99974.25
2022-12-13T11:36:25.411Z,99974.50
2022-12-13T11:41:32.571Z,99965.00
2022-12-13T11:46:39.691Z,99962.56
2022-12-13T11:51:44.139Z,99963.59
2022-12-13T11:56:46.893Z,99956.78
2022-12-13T12:01:52.749Z,99953.75
2022-12-13T12:07:04.905Z,99942.88
2022-12-13T12:12:22.166Z,99939.19
2022-12-13T12:17:27.673Z,99938.94
2022-12-13T12:22:36.186Z,99942.59
2022-12-13T12:27:41.553Z,99936.06
2022-12-13T12:32:50.282Z,99935.78
2022-12-13T12:37:54.603Z,99930.47
2022-12-13T12:43:16.269Z,99918.22
2022-12-13T12:49:00.570Z,99923.13
2022-12-13T12:54:12.837Z,99920.81
2022-12-13T12:59:19.022Z,99915.25
2022-12-13T13:04:26.047Z,99912.97
2022-12-13T13:09:28.935Z,99918.69
2022-12-13T13:14:32.998Z,99934.06
2022-12-13T13:19:47.655Z,99940.63
2022-12-13T13:24:59.617Z,99925.44
2022-12-13T13:30:06.447Z,99925.44
2022-12-13T13:35:50.993Z,99917.84
2022-12-13T13:40:55.767Z,99923.34
2022-12-13T13:46:00.540Z,99925.94
2022-12-13T13:51:26.883Z,99938.75
2022-12-13T13:56:50.077Z,99938.53
2022-12-13T14:02:05.654Z,99940.38
2022-12-13T14:07:56.291Z,99944.28
2022-12-13T14:13:28.846Z,99938.53
2022-12-13T14:19:20.385Z,99945.72
2022-12-13T14:24:29.302Z,99942.06
2022-12-13T14:29:34.620Z,99946.94
2022-12-13T14:34:37.363Z,99938.53
2022-12-13T14:39:45.018Z,99930.38
2022-12-13T14:44:49.168Z,99920.75
2022-12-13T14:49:55.414Z,99926.13
2022-12-13T14:54:59.482Z,99918.34
2022-12-13T15:00:22.791Z,99919.53
2022-12-13T15:05:28.532Z,99916.72
2022-12-13T15:10:34.369Z,99905.78
2022-12-13T15:15:38.535Z,99901.63
2022-12-13T15:20:42.025Z,99915.63
2022-12-13T15:25:53.771Z,99918.44
2022-12-13T15:30:58.199Z,99915.16
2022-12-13T15:36:04.462Z,99920.03
2022-12-13T15:41:07.771Z,99923.19
2022-12-13T15:46:12.617Z,99934.78
2022-12-13T15:51:29.054Z,99935.38
2022-12-13T15:56:34.481Z,99930.41
2022-12-13T16:01:38.567Z,99926.38
2022-12-13T16:06:41.596Z,99920.91
2022-12-13T16:11:48.894Z,99915.66
2022-12-13T16:16:53.053Z,99918.97
2022-12-13T16:21:56.003Z,99904.59
2022-12-13T16:26:58.776Z,99908.72
2022-12-13T16:32:08.700Z,99898.38
2022-12-13T16:37:25.438Z,99893.59
2022-12-13T16:42:29.812Z,99893.59
2022-12-13T16:47:44.506Z,99886.19
2022-12-13T16:52:51.161Z,99890.56
2022-12-13T16:57:58.844Z,99879.72
2022-12-13T17:03:02.969Z,99878.03
2022-12-13T17:08:05.913Z,99872.75
2022-12-13T17:13:08.964Z,99870.06
2022-12-13T17:18:13.252Z,99865.91
2022-12-13T17:23:18.400Z,99871.94
2022-12-13T17:28:21.438Z,99865.50
2022-12-13T17:33:26.059Z,99875.31
2022-12-13T17:38:29.307Z,99879.56
2022-12-13T17:43:35.169Z,99874.81
2022-12-13T17:48:41.096Z,99876.16
2022-12-13T17:53:44.810Z,99880.59
2022-12-13T17:58:47.663Z,99877.00
2022-12-13T18:03:52.850Z,99873.22
2022-12-13T18:08:55.624Z,99866.22
2022-12-13T18:13:58.747Z,99865.28
2022-12-13T18:19:03.023Z,99872.25
2022-12-13T18:24:06.866Z,99865.63
2022-12-13T18:29:09.656Z,99859.41
2022-12-13T18:34:13.845Z,99840.47
2022-12-13T18:39:17.307Z,99847.03
2022-12-13T18:44:20.274Z,99841.69
2022-12-13T18:49:24.439Z,99825.44
2022-12-13T18:54:27.348Z,99837.41
2022-12-13T18:59:30.163Z,99846.47
2022-12-13T19:04:35.590Z,99844.13
2022-12-13T19:09:38.496Z,99843.97
2022-12-13T19:14:41.282Z,99854.72
2022-12-13T19:19:45.399Z,99852.41
2022-12-13T19:24:51.214Z,99840.41
2022-12-13T19:29:53.989Z,99832.72
2022-12-13T19:34:58.212Z,99831.53
2022-12-13T19:40:00.966Z,99830.13
2022-12-13T19:45:03.724Z,99822.06
2022-12-13T19:50:08.523Z,99808.16
2022-12-13T19:55:11.679Z,99804.22
2022-12-13T20:00:15.456Z,99805.91
2022-12-13T20:05:19.891Z,99811.78
2022-12-13T20:10:22.685Z,99812.22
2022-12-13T20:15:25.439Z,99800.75
2022-12-13T20:20:47.222Z,99816.72
2022-12-13T20:26:00.421Z,99805.53
2022-12-13T20:31:05.503Z,99805.81
2022-12-13T20:36:27.639Z,99791.66
2022-12-13T20:41:31.538Z,99799.25
2022-12-13T20:46:34.482Z,99787.81
2022-12-13T20:51:39.781Z,99789.66
2022-12-13T20:56:42.788Z,99779.19
2022-12-13T21:01:48.796Z,99782.72
2022-12-13T21:06:53.440Z,99783.44
2022-12-13T21:11:56.198Z,99777.22
2022-12-13T21:16:59.784Z,99763.38
2022-12-13T21:22:04.003Z,99757.88
2022-12-13T21:27:06.791Z,99753.19
2022-12-13T21:32:09.572Z,99744.31
2022-12-13T21:37:13.787Z,99738.66
2022-12-13T21:42:16.567Z,99736.53
2022-12-13T21:47:19.393Z,99739.50
2022-12-13T21:52:23.558Z,99741.78
2022-12-13T21:57:40.898Z,99735.41
2022-12-13T22:02:43.726Z,99720.09
2022-12-13T22:07:48.160Z,99731.56
2022-12-13T22:12:50.988Z,99725.59
2022-12-13T22:17:53.728Z,99736.06
2022-12-13T22:22:57.928Z,99714.97
2022-12-13T22:28:00.761Z,99716.56
2022-12-13T22:33:03.585Z,99704.25
2022-12-13T22:38:07.846Z,99701.22
2022-12-13T22:43:12.930Z,99686.53
2022-12-13T22:48:19.100Z,99688.00
2022-12-13T22:53:23.257Z,99669.25
2022-12-13T22:58:26.364Z,99683.13
2022-12-13T23:03:31.216Z,99680.59
2022-12-13T23:08:40.236Z,99671.84
2022-12-13T23:13:48.252Z,99676.28
2022-12-13T23:19:01.229Z,99644.69
2022-12-13T23:24:15.068Z,99654.56
2022-12-13T23:29:17.921Z,99649.19
2022-12-13T23:34:21.265Z,99637.84
2022-12-13T23:39:25.419Z,99639.69
2022-12-13T23:44:28.196Z,99633.88
2022-12-13T23:49:30.979Z,99627.75
2022-12-13T23:54:35.235Z,99637.38
2022-12-13T23:59:38.016Z,99636.66
